createdAt,value
2018-05-25T00:00:59.781Z,20.88
2018-05-25T00:02:00.047Z,20.88
2018-05-25T00:02:59.942Z,20.87
2018-05-25T00:04:00.004Z,20.86
2018-05-25T00:04:59.990Z,20.87
2018-05-25T00:06:00.241Z,20.87
2018-05-25T00:06:59.749Z,20.87
2018-05-25T00:08:00.025Z,20.87
2018-05-25T00:08:59.782Z,20.86
2018-05-25T00:09:59.774Z,20.87
2018-05-25T00:11:00.049Z,20.87
2018-05-25T00:11:59.960Z,20.85
2018-05-25T00:12:59.852Z,20.86
2018-05-25T00:13:59.891Z,20.87
2018-05-25T00:15:00.041Z,20.86
2018-05-25T00:15:59.675Z,20.87
2018-05-25T00:16:59.947Z,20.87
2018-05-25T00:17:59.925Z,20.85
2018-05-25T00:18:59.827Z,20.86
2018-05-25T00:19:59.959Z,20.86
2018-05-25T00:20:59.914Z,20.86
2018-05-25T00:21:59.893Z,20.87
2018-05-25T00:22:59.914Z,20.86
2018-05-25T00:23:59.843Z,20.86
2018-05-25T00:24:59.761Z,20.86
2018-05-25T00:25:59.931Z,20.86
2018-05-25T00:26:59.852Z,20.86
2018-05-25T00:27:59.816Z,20.86
2018-05-25T00:28:59.822Z,20.86
2018-05-25T00:29:59.831Z,20.85
2018-05-25T00:30:59.870Z,20.85
2018-05-25T00:31:59.988Z,20.86
2018-05-25T00:33:00.053Z,20.86
2018-05-25T00:33:59.797Z,20.86
2018-05-25T00:34:59.930Z,20.85
2018-05-25T00:35:59.907Z,20.86
2018-05-25T00:36:59.846Z,20.86
2018-05-25T00:37:59.988Z,20.85
2018-05-25T00:38:59.847Z,20.85
2018-05-25T00:39:59.888Z,20.85
2018-05-25T00:40:59.939Z,20.85
2018-05-25T00:42:00.034Z,20.84
2018-05-25T00:42:59.776Z,20.84
2018-05-25T00:43:59.938Z,20.84
2018-05-25T00:44:59.876Z,20.84
2018-05-25T00:45:59.799Z,20.84
2018-05-25T00:47:00.017Z,20.85
2018-05-25T00:47:59.989Z,20.84
2018-05-25T00:48:59.783Z,20.84
2018-05-25T00:49:59.876Z,20.85
2018-05-25T00:50:59.965Z,20.84
2018-05-25T00:51:59.792Z,20.85
2018-05-25T00:52:59.936Z,20.85
2018-05-25T00:53:59.836Z,20.84
2018-05-25T00:54:59.946Z,20.84
2018-05-25T00:56:00.169Z,20.84
2018-05-25T00:57:00.039Z,20.84
2018-05-25T00:57:59.873Z,20.83
2018-05-25T00:58:59.784Z,20.84
2018-05-25T00:59:59.850Z,20.84
2018-05-25T01:00:59.979Z,20.84
2018-05-25T01:01:59.871Z,20.83
2018-05-25T01:02:59.778Z,20.84
2018-05-25T01:03:59.926Z,20.83
2018-05-25T01:04:59.864Z,20.84
2018-05-25T01:05:59.916Z,20.83
2018-05-25T01:06:59.871Z,20.83
2018-05-25T01:07:59.808Z,20.83
2018-05-25T01:08:59.908Z,20.83
2018-05-25T01:09:59.951Z,20.83
2018-05-25T01:11:00.004Z,20.83
2018-05-25T01:11:59.945Z,20.83
2018-05-25T01:12:59.916Z,20.83
2018-05-25T01:13:59.834Z,20.83
2018-05-25T01:15:00.039Z,20.83
2018-05-25T01:16:00.051Z,20.83
2018-05-25T01:16:59.892Z,20.83
2018-05-25T01:17:59.907Z,20.83
2018-05-25T01:18:59.816Z,20.83
2018-05-25T01:19:59.873Z,20.83
2018-05-25T01:20:59.768Z,20.83
2018-05-25T01:21:59.844Z,20.83
2018-05-25T01:22:59.842Z,20.83
2018-05-25T01:23:59.839Z,20.83
2018-05-25T01:25:00.041Z,20.83
2018-05-25T01:25:59.841Z,20.83
2018-05-25T01:26:59.966Z,20.83
2018-05-25T01:27:59.964Z,20.83
2018-05-25T01:28:59.962Z,20.83
2018-05-25T01:29:59.889Z,20.83
2018-05-25T01:30:59.736Z,20.83
2018-05-25T01:31:59.959Z,20.83
2018-05-25T01:32:59.836Z,20.83
2018-05-25T01:33:59.843Z,20.82
2018-05-25T01:34:59.886Z,20.83
2018-05-25T01:35:59.866Z,20.83
2018-05-25T01:37:00.056Z,20.83
2018-05-25T01:37:59.997Z,20.83
2018-05-25T01:38:59.967Z,20.82
2018-05-25T01:39:59.805Z,20.82
2018-05-25T01:41:00.042Z,20.82
2018-05-25T01:41:59.769Z,20.83
2018-05-25T01:42:59.949Z,20.83
2018-05-25T01:43:59.918Z,20.82
2018-05-25T01:44:59.965Z,20.82
2018-05-25T01:45:59.907Z,20.82
2018-05-25T01:47:00.104Z,20.82
2018-05-25T01:47:59.825Z,20.82
2018-05-25T01:48:59.981Z,20.82
2018-05-25T01:49:59.875Z,20.82
2018-05-25T01:50:59.847Z,20.81
2018-05-25T01:51:59.923Z,20.82
2018-05-25T01:52:59.679Z,20.82
2018-05-25T01:53:59.884Z,20.82
2018-05-25T01:54:59.954Z,20.82
2018-05-25T01:55:59.920Z,20.82
2018-05-25T01:56:59.922Z,20.81
2018-05-25T01:57:59.971Z,20.82
2018-05-25T01:59:00.027Z,20.83
2018-05-25T01:59:59.874Z,20.81
2018-05-25T02:00:59.826Z,20.81
2018-05-25T02:01:59.776Z,20.82
2018-05-25T02:02:59.753Z,20.82
2018-05-25T02:03:59.909Z,20.82
2018-05-25T02:05:00.041Z,20.82
2018-05-25T02:05:59.919Z,20.82
2018-05-25T02:06:59.985Z,20.82
2018-05-25T02:07:59.761Z,20.83
2018-05-25T02:08:59.937Z,20.82
2018-05-25T02:10:00.033Z,20.81
2018-05-25T02:10:59.840Z,20.81
2018-05-25T02:11:59.879Z,20.81
2018-05-25T02:12:59.827Z,20.82
2018-05-25T02:14:00.051Z,20.82
2018-05-25T02:14:59.904Z,20.82
2018-05-25T02:15:59.896Z,20.82
2018-05-25T02:16:59.985Z,20.83
2018-05-25T02:17:59.799Z,20.82
2018-05-25T02:18:59.973Z,20.82
2018-05-25T02:19:59.804Z,20.82
2018-05-25T02:21:00.357Z,20.81
2018-05-25T02:21:59.891Z,20.82
2018-05-25T02:22:59.803Z,20.82
2018-05-25T02:23:59.832Z,20.82
2018-05-25T02:24:59.832Z,20.81
2018-05-25T02:25:59.857Z,20.82
2018-05-25T02:26:59.833Z,20.82
2018-05-25T02:27:59.803Z,20.82
2018-05-25T02:28:59.768Z,20.82
2018-05-25T02:29:59.740Z,20.81
2018-05-25T02:30:59.751Z,20.82
2018-05-25T02:31:59.958Z,20.82
2018-05-25T02:32:59.950Z,20.81
2018-05-25T02:33:59.933Z,20.81
2018-05-25T02:34:59.965Z,20.82
2018-05-25T02:35:59.982Z,20.82
2018-05-25T02:36:59.848Z,20.82
2018-05-25T02:37:59.985Z,20.82
2018-05-25T02:38:59.751Z,20.82
2018-05-25T02:39:59.732Z,20.82
2018-05-25T02:40:59.902Z,20.82
2018-05-25T02:41:59.871Z,20.81
2018-05-25T02:42:59.791Z,20.82
2018-05-25T02:43:59.907Z,20.82
2018-05-25T02:44:59.976Z,20.81
2018-05-25T02:45:59.998Z,20.82
2018-05-25T02:46:59.868Z,20.82
2018-05-25T02:47:59.949Z,20.81
2018-05-25T02:48:59.768Z,20.82
2018-05-25T02:49:59.927Z,20.82
2018-05-25T02:51:21.726Z,20.82
2018-05-25T02:51:59.940Z,20.82
2018-05-25T02:52:59.891Z,20.81
2018-05-25T02:53:59.752Z,20.81
2018-05-25T02:54:59.856Z,20.82
2018-05-25T02:55:59.688Z,20.81
2018-05-25T02:56:59.849Z,20.81
2018-05-25T02:57:59.740Z,20.82
2018-05-25T02:58:59.863Z,20.82
2018-05-25T03:00:00.018Z,20.81
2018-05-25T03:01:00.149Z,20.82
2018-05-25T03:01:59.951Z,20.82
2018-05-25T03:02:59.757Z,20.81
2018-05-25T03:03:59.825Z,20.81
2018-05-25T03:04:59.729Z,20.82
2018-05-25T03:05:59.869Z,20.81
2018-05-25T03:06:59.795Z,20.81
2018-05-25T03:07:59.749Z,20.81
2018-05-25T03:08:59.756Z,20.81
2018-05-25T03:09:59.860Z,20.81
2018-05-25T03:11:00.151Z,20.81
2018-05-25T03:11:59.841Z,20.81
2018-05-25T03:12:59.763Z,20.82
2018-05-25T03:13:59.962Z,20.81
2018-05-25T03:14:59.808Z,20.8
2018-05-25T03:15:59.929Z,20.81
2018-05-25T03:16:59.946Z,20.81
2018-05-25T03:18:00.057Z,20.81
2018-05-25T03:18:59.831Z,20.81
2018-05-25T03:19:59.766Z,20.81
2018-05-25T03:20:59.801Z,20.8
2018-05-25T03:21:59.906Z,20.8
2018-05-25T03:22:59.911Z,20.81
2018-05-25T03:23:59.957Z,20.8
2018-05-25T03:24:59.793Z,20.8
2018-05-25T03:25:59.771Z,20.81
2018-05-25T03:26:59.902Z,20.8
2018-05-25T03:27:59.942Z,20.8
2018-05-25T03:28:59.860Z,20.8
2018-05-25T03:29:59.806Z,20.8
2018-05-25T03:30:59.838Z,20.81
2018-05-25T03:31:59.943Z,20.81
2018-05-25T03:32:59.848Z,20.8
2018-05-25T03:33:59.880Z,20.8
2018-05-25T03:34:59.772Z,20.81
2018-05-25T03:35:59.770Z,20.8
2018-05-25T03:36:59.732Z,20.8
2018-05-25T03:37:59.936Z,20.8
2018-05-25T03:38:59.817Z,20.79
2018-05-25T03:39:59.836Z,20.8
2018-05-25T03:40:59.773Z,20.8
2018-05-25T03:41:59.879Z,20.8
2018-05-25T03:42:59.817Z,20.8
2018-05-25T03:44:00.081Z,20.8
2018-05-25T03:44:59.764Z,20.8
2018-05-25T03:45:59.945Z,20.8
2018-05-25T03:46:59.848Z,20.79
2018-05-25T03:47:59.803Z,20.8
2018-05-25T03:48:59.806Z,20.79
2018-05-25T03:49:59.812Z,20.79
2018-05-25T03:50:59.889Z,20.79
2018-05-25T03:51:59.728Z,20.8
2018-05-25T03:52:59.658Z,20.8
2018-05-25T03:53:59.724Z,20.79
2018-05-25T03:54:59.851Z,20.79
2018-05-25T03:55:59.892Z,20.8
2018-05-25T03:56:59.835Z,20.79
2018-05-25T03:57:59.714Z,20.79
2018-05-25T03:58:59.898Z,20.79
2018-05-25T03:59:59.910Z,20.79
2018-05-25T04:00:59.854Z,20.79
2018-05-25T04:01:59.908Z,20.79
2018-05-25T04:02:59.730Z,20.79
2018-05-25T04:03:59.733Z,20.8
2018-05-25T04:04:59.872Z,20.79
2018-05-25T04:05:59.764Z,20.79
2018-05-25T04:06:59.926Z,20.79
2018-05-25T04:07:59.690Z,20.79
2018-05-25T04:08:59.786Z,20.79
2018-05-25T04:10:00.133Z,20.79
2018-05-25T04:10:59.904Z,20.8
2018-05-25T04:11:59.690Z,20.79
2018-05-25T04:12:59.722Z,20.79
2018-05-25T04:13:59.961Z,20.79
2018-05-25T04:14:59.728Z,20.79
2018-05-25T04:15:59.952Z,20.79
2018-05-25T04:16:59.865Z,20.79
2018-05-25T04:17:59.925Z,20.78
2018-05-25T04:18:59.884Z,20.79
2018-05-25T04:19:59.887Z,20.78
2018-05-25T04:20:59.818Z,20.78
2018-05-25T04:21:59.701Z,20.78
2018-05-25T04:22:59.923Z,20.79
2018-05-25T04:23:59.790Z,20.79
2018-05-25T04:24:59.768Z,20.79
2018-05-25T04:25:59.743Z,20.79
2018-05-25T04:26:59.912Z,20.78
2018-05-25T04:27:59.960Z,20.79
2018-05-25T04:28:59.899Z,20.79
2018-05-25T04:29:59.874Z,20.78
2018-05-25T04:30:59.844Z,20.78
2018-05-25T04:31:59.891Z,20.78
2018-05-25T04:32:59.794Z,20.78
2018-05-25T04:33:59.855Z,20.78
2018-05-25T04:34:59.694Z,20.78
2018-05-25T04:35:59.921Z,20.78
2018-05-25T04:36:59.940Z,20.79
2018-05-25T04:37:59.911Z,20.79
2018-05-25T04:38:59.806Z,20.78
2018-05-25T04:39:59.747Z,20.79
2018-05-25T04:40:59.805Z,20.78
2018-05-25T04:41:59.759Z,20.78
2018-05-25T04:42:59.993Z,20.79
2018-05-25T04:43:59.876Z,20.79
2018-05-25T04:44:59.851Z,20.78
2018-05-25T04:45:59.898Z,20.79
2018-05-25T04:46:59.807Z,20.79
2018-05-25T04:48:00.091Z,20.78
2018-05-25T04:48:59.864Z,20.78
2018-05-25T04:49:59.868Z,20.79
2018-05-25T04:50:59.889Z,20.79
2018-05-25T04:51:59.904Z,20.79
2018-05-25T04:52:59.841Z,20.79
2018-05-25T04:53:59.820Z,20.79
2018-05-25T04:54:59.970Z,20.79
2018-05-25T04:56:00.039Z,20.8
2018-05-25T04:56:59.711Z,20.79
2018-05-25T04:57:59.678Z,20.79
2018-05-25T04:58:59.831Z,20.8
2018-05-25T04:59:59.754Z,20.79
2018-05-25T05:00:59.862Z,20.79
2018-05-25T05:01:59.779Z,20.79
2018-05-25T05:02:59.692Z,20.79
2018-05-25T05:03:59.831Z,20.8
2018-05-25T05:05:00.208Z,20.8
2018-05-25T05:05:59.750Z,20.79
2018-05-25T05:06:59.672Z,20.79
2018-05-25T05:07:59.767Z,20.8
2018-05-25T05:08:59.824Z,20.79
2018-05-25T05:09:59.880Z,20.79
2018-05-25T05:10:59.946Z,20.8
2018-05-25T05:11:59.892Z,20.79
2018-05-25T05:12:59.777Z,20.79
2018-05-25T05:13:59.699Z,20.8
2018-05-25T05:14:59.847Z,20.79
2018-05-25T05:15:59.712Z,20.79
2018-05-25T05:16:59.872Z,20.8
2018-05-25T05:17:59.853Z,20.79
2018-05-25T05:18:59.998Z,20.8
2018-05-25T05:19:59.909Z,20.8
2018-05-25T05:20:59.913Z,20.78
2018-05-25T05:21:59.952Z,20.8
2018-05-25T05:23:00.094Z,20.8
2018-05-25T05:23:59.740Z,20.79
2018-05-25T05:24:59.767Z,20.8
2018-05-25T05:25:59.935Z,20.8
2018-05-25T05:26:59.975Z,20.79
2018-05-25T05:27:59.789Z,20.79
2018-05-25T05:28:59.796Z,20.8
2018-05-25T05:29:59.955Z,20.79
2018-05-25T05:30:59.885Z,20.8
2018-05-25T05:31:59.951Z,20.8
2018-05-25T05:32:59.757Z,20.8
2018-05-25T05:33:59.819Z,20.8
2018-05-25T05:34:59.884Z,20.8
2018-05-25T05:35:59.736Z,20.8
2018-05-25T05:36:59.724Z,20.8
2018-05-25T05:37:59.788Z,20.8
2018-05-25T05:38:59.723Z,20.79
2018-05-25T05:39:59.780Z,20.8
2018-05-25T05:40:59.779Z,20.8
2018-05-25T05:41:59.803Z,20.79
2018-05-25T05:42:59.671Z,20.8
2018-05-25T05:43:59.935Z,20.8
2018-05-25T05:44:59.839Z,20.79
2018-05-25T05:45:59.838Z,20.8
2018-05-25T05:46:59.806Z,20.79
2018-05-25T05:47:59.756Z,20.79
2018-05-25T05:48:59.871Z,20.79
2018-05-25T05:49:59.817Z,20.8
2018-05-25T05:51:00.357Z,20.79
2018-05-25T05:51:59.726Z,20.79
2018-05-25T05:52:59.787Z,20.8
2018-05-25T05:53:59.738Z,20.79
2018-05-25T05:54:59.772Z,20.79
2018-05-25T05:55:59.773Z,20.8
2018-05-25T05:56:59.851Z,20.79
2018-05-25T05:57:59.848Z,20.8
2018-05-25T05:58:59.799Z,20.8
2018-05-25T05:59:59.794Z,20.79
2018-05-25T06:00:59.698Z,20.8
2018-05-25T06:01:59.847Z,20.8
2018-05-25T06:02:59.899Z,20.79
2018-05-25T06:03:59.709Z,20.8
2018-05-25T06:04:59.870Z,20.8
2018-05-25T06:05:59.755Z,20.79
2018-05-25T06:06:59.941Z,20.8
2018-05-25T06:07:59.896Z,20.8
2018-05-25T06:08:59.652Z,20.8
2018-05-25T06:09:59.650Z,20.8
2018-05-25T06:10:59.771Z,20.8
2018-05-25T06:11:59.700Z,20.8
2018-05-25T06:12:59.907Z,20.8
2018-05-25T06:13:59.676Z,20.8
2018-05-25T06:15:00.120Z,20.8
2018-05-25T06:15:59.749Z,20.8
2018-05-25T06:16:59.701Z,20.8
2018-05-25T06:17:59.760Z,20.79
2018-05-25T06:18:59.674Z,20.8
2018-05-25T06:19:59.826Z,20.8
2018-05-25T06:20:59.727Z,20.8
2018-05-25T06:21:59.792Z,20.8
2018-05-25T06:22:59.840Z,20.8
2018-05-25T06:23:59.765Z,20.8
2018-05-25T06:24:59.720Z,20.81
2018-05-25T06:25:59.779Z,20.81
2018-05-25T06:26:59.714Z,20.8
2018-05-25T06:27:59.671Z,20.81
2018-05-25T06:28:59.693Z,20.81
2018-05-25T06:29:59.706Z,20.8
2018-05-25T06:30:59.825Z,20.8
2018-05-25T06:31:59.809Z,20.81
2018-05-25T06:32:59.890Z,20.8
2018-05-25T06:33:59.896Z,20.81
2018-05-25T06:35:00.747Z,20.81
2018-05-25T06:35:59.784Z,20.8
2018-05-25T06:36:59.664Z,20.8
2018-05-25T06:37:59.842Z,20.81
2018-05-25T06:38:59.797Z,20.8
2018-05-25T06:39:59.726Z,20.8
2018-05-25T06:40:59.956Z,20.81
2018-05-25T06:41:59.773Z,20.8
2018-05-25T06:42:59.910Z,20.81
2018-05-25T06:43:59.791Z,20.81
2018-05-25T06:44:59.813Z,20.8
2018-05-25T06:45:59.697Z,20.8
2018-05-25T06:46:59.947Z,20.81
2018-05-25T06:47:59.907Z,20.8
2018-05-25T06:48:59.879Z,20.81
2018-05-25T06:49:59.933Z,20.81
2018-05-25T06:50:59.838Z,20.8
2018-05-25T06:51:59.907Z,20.81
2018-05-25T06:52:59.831Z,20.81
2018-05-25T06:53:59.879Z,20.81
2018-05-25T06:54:59.659Z,20.81
2018-05-25T06:55:59.794Z,20.81
2018-05-25T06:56:59.711Z,20.8
2018-05-25T06:57:59.985Z,20.81
2018-05-25T06:58:59.801Z,20.81
2018-05-25T06:59:59.732Z,20.8
2018-05-25T07:00:59.706Z,20.81
2018-05-25T07:01:59.774Z,20.81
2018-05-25T07:02:59.761Z,20.8
2018-05-25T07:03:59.933Z,20.81
2018-05-25T07:04:59.817Z,20.81
2018-05-25T07:05:59.734Z,20.81
2018-05-25T07:06:59.759Z,20.81
2018-05-25T07:07:59.811Z,20.81
2018-05-25T07:08:59.851Z,20.81
2018-05-25T07:09:59.644Z,20.81
2018-05-25T07:10:59.796Z,20.82
2018-05-25T07:11:59.823Z,20.81
2018-05-25T07:12:59.593Z,20.81
2018-05-25T07:13:59.720Z,20.81
2018-05-25T07:14:59.672Z,20.81
2018-05-25T07:15:59.749Z,20.81
2018-05-25T07:17:00.167Z,20.81
2018-05-25T07:17:59.716Z,20.81
2018-05-25T07:18:59.702Z,20.82
2018-05-25T07:19:59.827Z,20.82
2018-05-25T07:20:59.847Z,20.81
2018-05-25T07:21:59.710Z,20.82
2018-05-25T07:22:59.754Z,20.81
2018-05-25T07:23:59.749Z,20.8
2018-05-25T07:24:59.788Z,20.81
2018-05-25T07:25:59.885Z,20.81
2018-05-25T07:26:59.697Z,20.81
2018-05-25T07:27:59.648Z,20.82
2018-05-25T07:28:59.658Z,20.82
2018-05-25T07:29:59.781Z,20.81
2018-05-25T07:31:21.132Z,20.82
2018-05-25T07:31:59.667Z,20.82
2018-05-25T07:32:59.823Z,20.81
2018-05-25T07:33:59.753Z,20.82
2018-05-25T07:34:59.645Z,20.82
2018-05-25T07:35:59.653Z,20.81
2018-05-25T07:36:59.890Z,20.82
2018-05-25T07:37:59.864Z,20.82
2018-05-25T07:38:59.857Z,20.81
2018-05-25T07:39:59.739Z,20.82
2018-05-25T07:40:59.788Z,20.82
2018-05-25T07:41:59.784Z,20.81
2018-05-25T07:42:59.831Z,20.82
2018-05-25T07:43:59.812Z,20.82
2018-05-25T07:44:59.986Z,20.82
2018-05-25T07:45:59.795Z,20.82
2018-05-25T07:46:59.787Z,20.82
2018-05-25T07:47:59.644Z,20.81
2018-05-25T07:48:59.896Z,20.81
2018-05-25T07:49:59.747Z,20.82
2018-05-25T07:50:59.675Z,20.81
2018-05-25T07:51:59.840Z,20.81
2018-05-25T07:52:59.753Z,20.81
2018-05-25T07:53:59.677Z,20.81
2018-05-25T07:54:59.942Z,20.82
2018-05-25T07:55:59.873Z,20.82
2018-05-25T07:56:59.636Z,20.81
2018-05-25T07:57:59.876Z,20.81
2018-05-25T07:58:59.785Z,20.82
2018-05-25T07:59:59.795Z,20.81
2018-05-25T08:00:59.740Z,20.82
2018-05-25T08:01:59.796Z,20.82
2018-05-25T08:02:59.778Z,20.81
2018-05-25T08:03:59.894Z,20.82
2018-05-25T08:04:59.724Z,20.82
2018-05-25T08:05:59.753Z,20.81
2018-05-25T08:06:59.724Z,20.81
2018-05-25T08:07:59.744Z,20.82
2018-05-25T08:08:59.934Z,20.81
2018-05-25T08:09:59.698Z,20.82
2018-05-25T08:10:59.617Z,20.82
2018-05-25T08:12:00.367Z,20.81
2018-05-25T08:12:59.695Z,20.81
2018-05-25T08:14:00.015Z,20.82
2018-05-25T08:14:59.801Z,20.81
2018-05-25T08:15:59.685Z,20.82
2018-05-25T08:16:59.969Z,20.82
2018-05-25T08:17:59.789Z,20.81
2018-05-25T08:18:59.701Z,20.81
2018-05-25T08:19:59.606Z,20.82
2018-05-25T08:20:59.756Z,20.82
2018-05-25T08:22:00.259Z,20.82
2018-05-25T08:22:59.828Z,20.81
2018-05-25T08:23:59.778Z,20.81
2018-05-25T08:24:59.871Z,20.81
2018-05-25T08:25:59.794Z,20.82
2018-05-25T08:26:59.896Z,20.81
2018-05-25T08:27:59.867Z,20.82
2018-05-25T08:28:59.664Z,20.82
2018-05-25T08:29:59.732Z,20.82
2018-05-25T08:30:59.813Z,20.81
2018-05-25T08:31:59.738Z,20.82
2018-05-25T08:32:59.722Z,20.81
2018-05-25T08:33:59.725Z,20.82
2018-05-25T08:34:59.775Z,20.82
2018-05-25T08:35:59.914Z,20.81
2018-05-25T08:36:59.812Z,20.82
2018-05-25T08:37:59.679Z,20.81
2018-05-25T08:38:59.803Z,20.81
2018-05-25T08:39:59.843Z,20.82
2018-05-25T08:40:59.688Z,20.82
2018-05-25T08:41:59.871Z,20.81
2018-05-25T08:42:59.756Z,20.81
2018-05-25T08:43:59.677Z,20.81
2018-05-25T08:44:59.725Z,20.81
2018-05-25T08:46:00.008Z,20.81
2018-05-25T08:46:59.690Z,20.81
2018-05-25T08:47:59.821Z,20.81
2018-05-25T08:48:59.840Z,20.81
2018-05-25T08:49:59.552Z,20.82
2018-05-25T08:50:59.792Z,20.81
2018-05-25T08:51:59.665Z,20.82
2018-05-25T08:52:59.832Z,20.81
2018-05-25T08:53:59.730Z,20.81
2018-05-25T08:54:59.687Z,20.81
2018-05-25T08:55:59.812Z,20.82
2018-05-25T08:56:59.678Z,20.81
2018-05-25T08:57:59.840Z,20.82
2018-05-25T08:58:59.661Z,20.82
2018-05-25T08:59:59.774Z,20.81
2018-05-25T09:00:59.787Z,20.82
2018-05-25T09:01:59.892Z,20.81
2018-05-25T09:02:59.796Z,20.81
2018-05-25T09:03:59.698Z,20.81
2018-05-25T09:04:59.646Z,20.82
2018-05-25T09:05:59.834Z,20.81
2018-05-25T09:06:59.601Z,20.82
2018-05-25T09:07:59.581Z,20.82
2018-05-25T09:08:59.987Z,20.81
2018-05-25T09:09:59.708Z,20.81
2018-05-25T09:10:59.751Z,20.81
2018-05-25T09:11:59.760Z,20.81
2018-05-25T09:12:59.674Z,20.81
2018-05-25T09:13:59.817Z,20.81
2018-05-25T09:14:59.675Z,20.77
2018-05-25T09:15:59.829Z,20.84
2018-05-25T09:16:59.807Z,20.86
2018-05-25T09:17:59.795Z,20.87
2018-05-25T09:18:59.860Z,20.92
2018-05-25T09:19:59.751Z,20.91
2018-05-25T09:20:59.768Z,20.9
2018-05-25T09:21:59.769Z,20.92
2018-05-25T09:22:59.784Z,20.92
2018-05-25T09:23:59.814Z,20.92
2018-05-25T09:24:59.768Z,20.94
2018-05-25T09:25:59.730Z,20.94
2018-05-25T09:26:59.654Z,20.94
2018-05-25T09:27:59.779Z,20.95
2018-05-25T09:28:59.883Z,21
2018-05-25T09:29:59.772Z,21
2018-05-25T09:30:59.797Z,21.02
2018-05-25T09:31:59.839Z,21.03
2018-05-25T09:32:59.696Z,21.04
2018-05-25T09:33:59.854Z,21.05
2018-05-25T09:34:59.599Z,21.07
2018-05-25T09:35:59.908Z,21.07
2018-05-25T09:36:59.851Z,21.1
2018-05-25T09:37:59.953Z,21.11
2018-05-25T09:38:59.743Z,21.12
2018-05-25T09:39:59.588Z,21.12
2018-05-25T09:40:59.675Z,21.13
2018-05-25T09:41:59.619Z,21.12
2018-05-25T09:42:59.809Z,21.13
2018-05-25T09:43:59.614Z,21.14
2018-05-25T09:44:59.795Z,21.13
2018-05-25T09:45:59.753Z,21.13
2018-05-25T09:46:59.633Z,21.14
2018-05-25T09:47:59.714Z,21.14
2018-05-25T09:48:59.724Z,21.14
2018-05-25T09:49:59.739Z,21.15
2018-05-25T09:50:59.698Z,21.15
2018-05-25T09:51:59.880Z,21.15
2018-05-25T09:52:59.622Z,21.16
2018-05-25T09:53:59.820Z,21.17
2018-05-25T09:54:59.865Z,21.18
2018-05-25T09:55:59.757Z,21.19
2018-05-25T09:56:59.829Z,21.19
2018-05-25T09:57:59.797Z,21.19
2018-05-25T09:58:59.725Z,21.19
2018-05-25T09:59:59.802Z,21.18
2018-05-25T10:00:59.867Z,21.18
2018-05-25T10:01:59.643Z,21.19
2018-05-25T10:02:59.737Z,21.18
2018-05-25T10:03:59.584Z,21.2
2018-05-25T10:05:00.712Z,21.2
2018-05-25T10:05:59.804Z,21.21
2018-05-25T10:06:59.623Z,21.23
2018-05-25T10:07:59.793Z,21.25
2018-05-25T10:08:59.772Z,21.36
2018-05-25T10:09:59.672Z,21.27
2018-05-25T10:10:59.727Z,21.26
2018-05-25T10:11:59.829Z,21.24
2018-05-25T10:12:59.597Z,21.23
2018-05-25T10:13:59.774Z,21.22
2018-05-25T10:14:59.599Z,21.19
2018-05-25T10:15:59.690Z,21.2
2018-05-25T10:16:59.939Z,21.19
2018-05-25T10:18:00.325Z,21.18
2018-05-25T10:18:59.682Z,21.17
2018-05-25T10:19:59.820Z,21.16
2018-05-25T10:20:59.735Z,21.14
2018-05-25T10:21:59.905Z,21.15
2018-05-25T10:22:59.691Z,21.15
2018-05-25T10:23:59.844Z,21.14
2018-05-25T10:24:59.927Z,21.15
2018-05-25T10:25:59.779Z,21.15
2018-05-25T10:26:59.845Z,21.13
2018-05-25T10:27:59.785Z,21.14
2018-05-25T10:28:59.679Z,21.15
2018-05-25T10:29:59.757Z,21.13
2018-05-25T10:30:59.643Z,21.13
2018-05-25T10:31:59.799Z,21.13
2018-05-25T10:32:59.819Z,21.13
2018-05-25T10:33:59.609Z,21.12
2018-05-25T10:35:00.229Z,21.11
2018-05-25T10:35:59.855Z,21.11
2018-05-25T10:36:59.607Z,21.12
2018-05-25T10:37:59.709Z,21.1
2018-05-25T10:38:59.681Z,21.1
2018-05-25T10:39:59.523Z,21.12
2018-05-25T10:40:59.948Z,21.11
2018-05-25T10:41:59.636Z,21.1
2018-05-25T10:42:59.759Z,21.1
2018-05-25T10:43:59.789Z,21.08
2018-05-25T10:44:59.856Z,21.07
2018-05-25T10:45:59.723Z,21.08
2018-05-25T10:46:59.633Z,21.08
2018-05-25T10:47:59.650Z,21.07
2018-05-25T10:48:59.640Z,21.08
2018-05-25T10:49:59.769Z,21.07
2018-05-25T10:50:59.758Z,21.07
2018-05-25T10:51:59.775Z,21.08
2018-05-25T10:52:59.915Z,21.09
2018-05-25T10:53:59.638Z,21.12
2018-05-25T10:54:59.804Z,21.12
2018-05-25T10:56:00.327Z,21.11
2018-05-25T10:56:59.683Z,21.13
2018-05-25T10:58:00.403Z,21.14
2018-05-25T10:58:59.780Z,21.15
2018-05-25T10:59:59.808Z,21.17
2018-05-25T11:00:59.738Z,21.15
2018-05-25T11:01:59.769Z,21.15
2018-05-25T11:02:59.851Z,21.14
2018-05-25T11:03:59.555Z,21.14
2018-05-25T11:04:59.734Z,21.15
2018-05-25T11:05:59.780Z,21.13
2018-05-25T11:06:59.590Z,21.13
2018-05-25T11:07:59.779Z,21.14
2018-05-25T11:08:59.635Z,21.11
2018-05-25T11:10:00.090Z,21.12
2018-05-25T11:10:59.595Z,21.11
2018-05-25T11:11:59.611Z,21.08
2018-05-25T11:12:59.538Z,21.09
2018-05-25T11:13:59.734Z,21.08
2018-05-25T11:14:59.674Z,21.07
2018-05-25T11:15:59.593Z,21.07
2018-05-25T11:16:59.766Z,21.07
2018-05-25T11:17:59.820Z,21.05
2018-05-25T11:18:59.783Z,21.06
2018-05-25T11:19:59.751Z,21.07
2018-05-25T11:20:59.931Z,21.07
2018-05-25T11:22:00.004Z,21.06
2018-05-25T11:22:59.663Z,21.06
2018-05-25T11:23:59.618Z,21.05
2018-05-25T11:24:59.667Z,21.05
2018-05-25T11:25:59.642Z,21.05
2018-05-25T11:27:00.184Z,21.04
2018-05-25T11:27:59.694Z,21.06
2018-05-25T11:28:59.810Z,21.04
2018-05-25T11:29:59.783Z,21.04
2018-05-25T11:30:59.646Z,21.04
2018-05-25T11:31:59.669Z,21.04
2018-05-25T11:32:59.836Z,21.03
2018-05-25T11:33:59.559Z,21.04
2018-05-25T11:34:59.822Z,21.02
2018-05-25T11:35:59.954Z,21.01
2018-05-25T11:36:59.811Z,21.01
2018-05-25T11:37:59.866Z,21.02
2018-05-25T11:38:59.764Z,21.01
2018-05-25T11:39:59.849Z,21.02
2018-05-25T11:40:59.969Z,21.02
2018-05-25T11:41:59.796Z,21.02
2018-05-25T11:42:59.807Z,21.02
2018-05-25T11:43:59.791Z,21.02
2018-05-25T11:44:59.835Z,21.02
2018-05-25T11:45:59.727Z,21.01
2018-05-25T11:46:59.751Z,21.02
2018-05-25T11:48:00.048Z,21.01
2018-05-25T11:48:59.936Z,21.02
2018-05-25T11:49:59.847Z,21.02
2018-05-25T11:50:59.736Z,21.02
2018-05-25T11:51:59.618Z,21.02
2018-05-25T11:52:59.889Z,21.02
2018-05-25T11:53:59.863Z,21.01
2018-05-25T11:54:59.828Z,21.01
2018-05-25T11:55:59.599Z,21.02
2018-05-25T11:56:59.838Z,21.01
2018-05-25T11:57:59.705Z,21.01
2018-05-25T11:58:59.876Z,21.01
2018-05-25T11:59:59.837Z,21.01
2018-05-25T12:00:59.661Z,21.01
2018-05-25T12:01:59.580Z,21.01
2018-05-25T12:02:59.735Z,21.01
2018-05-25T12:03:59.612Z,21.01
2018-05-25T12:04:59.841Z,21.01
2018-05-25T12:05:59.594Z,21.01
2018-05-25T12:06:59.761Z,21.01
2018-05-25T12:07:59.762Z,21.01
2018-05-25T12:08:59.793Z,21.01
2018-05-25T12:09:59.728Z,21.01
2018-05-25T12:10:59.605Z,21.01
2018-05-25T12:11:59.685Z,21.01
2018-05-25T12:12:59.644Z,21.01
2018-05-25T12:13:59.984Z,21.01
2018-05-25T12:14:59.703Z,21
2018-05-25T12:15:59.793Z,21.01
2018-05-25T12:16:59.779Z,21.01
2018-05-25T12:17:59.712Z,21
2018-05-25T12:18:59.753Z,21.01
2018-05-25T12:19:59.877Z,21.01
2018-05-25T12:20:59.669Z,21.01
2018-05-25T12:21:59.689Z,21.01
2018-05-25T12:22:59.814Z,21.01
2018-05-25T12:23:59.724Z,21.01
2018-05-25T12:24:59.746Z,21.03
2018-05-25T12:25:59.775Z,21.01
2018-05-25T12:26:59.681Z,21.05
2018-05-25T12:27:59.771Z,21.07
2018-05-25T12:28:59.840Z,21.07
2018-05-25T12:29:59.702Z,21.08
2018-05-25T12:30:59.702Z,21.1
2018-05-25T12:31:59.527Z,21.11
2018-05-25T12:32:59.776Z,21.12
2018-05-25T12:33:59.750Z,21.12
2018-05-25T12:34:59.733Z,21.12
2018-05-25T12:35:59.750Z,21.12
2018-05-25T12:36:59.631Z,21.13
2018-05-25T12:37:59.815Z,21.14
2018-05-25T12:38:59.793Z,21.13
2018-05-25T12:39:59.778Z,21.14
2018-05-25T12:40:59.649Z,21.18
2018-05-25T12:41:59.810Z,21.13
2018-05-25T12:42:59.636Z,21.13
2018-05-25T12:43:59.754Z,21.14
2018-05-25T12:44:59.738Z,21.13
2018-05-25T12:45:59.767Z,21.18
2018-05-25T12:46:59.747Z,21.18
2018-05-25T12:47:59.862Z,21.17
2018-05-25T12:48:59.781Z,21.19
2018-05-25T12:49:59.674Z,21.19
2018-05-25T12:50:59.786Z,21.2
2018-05-25T12:51:59.705Z,21.24
2018-05-25T12:52:59.645Z,21.25
2018-05-25T12:53:59.841Z,21.25
2018-05-25T12:54:59.749Z,21.26
2018-05-25T12:55:59.661Z,21.28
2018-05-25T12:56:59.583Z,21.28